Time;durP1;ratioP1;P1;durP2;ratioP2;P2;SDS_P1;SDS_P2;PMS_P1;PMS_P2;Temp;Humidity;BMP_temperature;BMP_pressure;BME280_temperature;BME280_humidity;BME280_pressure;Samples;Min_cycle;Max_cycle;Signal;HPM_P1;HPM_P2
2022/02/11 00:00:53;;;;;;;;;;;;;;;;;;2139664;27;20017;-54
2022/02/11 00:04:39;;;;;;;;;;;;;;;;;;2141019;27;19977;-46
2022/02/11 00:06:03;;;;;;;;;;;;;;;;;;2138172;27;19950;-45
2022/02/11 00:07:07;;;;;;;;;;;;;;;;;;2132657;27;19929;-46
2022/02/11 00:08:08;;;;;;;;;;;;;;;;;;2134007;27;20013;-51
2022/02/11 00:09:09;;;;;;;;;;;;;;;;;;2140191;27;19930;-53
2022/02/11 00:10:10;;;;;;;;;;;;;;;;;;2140831;27;19922;-53
2022/02/11 00:11:12;;;;;;;;;;;;;;;;;;2138922;27;19930;-54
2022/02/11 00:12:13;;;;;;;;;;;;;;;;;;2139947;27;19997;-52
2022/02/11 00:13:14;;;;;;;;;;;;;;;;;;2140596;27;19954;-51
2022/02/11 00:14:15;;;;;;;;;;;;;;;;;;2139669;27;20084;-46
2022/02/11 00:15:37;;;;;;;;;;;;;;;;;;2140548;27;19930;-46
2022/02/11 00:16:38;;;;;;;;;;;;;;;;;;2139030;27;19966;-54
2022/02/11 00:17:43;;;;;;;;;;;;;;;;;;2139546;27;19930;-54
2022/02/11 00:18:44;;;;;;;;;;;;;;;;;;2141029;27;20372;-46
2022/02/11 00:19:45;;;;;;;;;;;;;;;;;;2138327;27;19923;-46
2022/02/11 00:20:46;;;;;;;;;;;;;;;;;;2140666;27;20034;-46
2022/02/11 00:21:47;;;;;;;;;;;;;;;;;;2140505;27;19974;-47
2022/02/11 00:22:48;;;;;;;;;;;;;;;;;;2137175;27;19930;-46
2022/02/11 00:23:48;;;;;;;;;;;;;;;;;;2140994;27;19927;-46
2022/02/11 00:24:51;;;;;;;;;;;;;;;;;;2140239;27;19929;-46
2022/02/11 00:25:57;;;;;;;;;;;;;;;;;;2138543;27;19973;-48
2022/02/11 00:27:19;;;;;;;;;;;;;;;;;;2140775;27;19923;-54
2022/02/11 00:30:23;;;;;;;;;;;;;;;;;;2113677;28;20347;-45
2022/02/11 00:31:43;;;;;;;;;;;;;;;;;;2137881;27;19977;-46
2022/02/11 00:32:52;;;;;;;;;;;;;;;;;;2131910;27;19948;-47
2022/02/11 00:33:56;;;;;;;;;;;;;;;;;;2135527;27;20009;-56
2022/02/11 00:35:06;;;;;;;;;;;;;;;;;;2131784;27;19985;-57
2022/02/11 00:36:09;;;;;;;;;;;;;;;;;;2131627;27;20292;-56
2022/02/11 00:37:13;;;;;;;;;;;;;;;;;;2138873;27;19961;-58
2022/02/11 00:38:20;;;;;;;;;;;;;;;;;;2140541;27;19971;-47
2022/02/11 00:39:59;;;;;;;;;;;;;;;;;;2138509;27;19923;-47
2022/02/11 01:02:09;;;;;;;;;;;;;;;;;;2138289;27;20350;-46
2022/02/11 01:03:10;;;;;;;;;;;;;;;;;;2105141;28;19924;-46
2022/02/11 01:04:10;;;;;;;;;;;;;;;;;;2125630;27;20006;-47
2022/02/11 01:05:11;;;;;;;;;;;;;;;;;;2138598;27;19969;-53
2022/02/11 01:06:13;;;;;;;;;;;;;;;;;;2140110;27;20232;-56
2022/02/11 01:07:14;;;;;;;;;;;;;;;;;;2139542;27;20316;-57
2022/02/11 01:08:15;;;;;;;;;;;;;;;;;;2138867;27;20017;-57
2022/02/11 01:09:16;;;;;;;;;;;;;;;;;;2140551;27;19968;-57
2022/02/11 01:10:17;;;;;;;;;;;;;;;;;;2139675;27;19926;-48
2022/02/11 01:11:20;;;;;;;;;;;;;;;;;;2139693;27;19935;-46
2022/02/11 01:12:22;;;;;;;;;;;;;;;;;;2140435;27;19929;-46
2022/02/11 01:13:26;;;;;;;;;;;;;;;;;;2138125;27;20033;-56
2022/02/11 01:14:33;;;;;;;;;;;;;;;;;;2140743;27;20438;-56
2022/02/11 01:15:37;;;;;;;;;;;;;;;;;;2139738;27;19922;-56
2022/02/11 01:16:42;;;;;;;;;;;;;;;;;;2138450;27;20263;-56
2022/02/11 01:17:48;;;;;;;;;;;;;;;;;;2132005;27;19930;-56
2022/02/11 01:18:57;;;;;;;;;;;;;;;;;;2135154;27;20014;-47
2022/02/11 01:20:06;;;;;;;;;;;;;;;;;;2140020;27;19929;-46
2022/02/11 01:21:14;;;;;;;;;;;;;;;;;;2140670;27;19930;-48
2022/02/11 01:22:26;;;;;;;;;;;;;;;;;;2138675;27;19929;-55
2022/02/11 01:23:43;;;;;;;;;;;;;;;;;;2140495;27;20018;-45
2022/02/11 01:25:02;;;;;;;;;;;;;;;;;;2137799;27;20013;-45
2022/02/11 01:27:28;;;;;;;;;;;;;;;;;;2137567;27;20025;-47
2022/02/11 01:28:53;;;;;;;;;;;;;;;;;;2139768;27;20018;-46
2022/02/11 01:31:18;;;;;;;;;;;;;;;;;;2111833;28;20473;-45
2022/02/11 01:32:33;;;;;;;;;;;;;;;;;;2132778;27;19931;-47
2022/02/11 01:33:54;;;;;;;;;;;;;;;;;;2137712;27;19985;-45
2022/02/11 01:35:03;;;;;;;;;;;;;;;;;;2140217;27;19978;-46
2022/02/11 01:36:15;;;;;;;;;;;;;;;;;;2137658;27;19969;-46
2022/02/11 01:37:34;;;;;;;;;;;;;;;;;;2140707;27;20013;-55
2022/02/11 01:38:47;;;;;;;;;;;;;;;;;;2138897;27;19923;-55
2022/02/11 01:40:19;;;;;;;;;;;;;;;;;;2139684;27;20022;-56
2022/02/11 01:44:41;;;;;;;;;;;;;;;;;;2133336;27;19962;-55
2022/02/11 01:47:22;;;;;;;;;;;;;;;;;;2131551;27;19951;-56
2022/02/11 01:48:52;;;;;;;;;;;;;;;;;;2131891;27;19958;-56
2022/02/11 01:50:14;;;;;;;;;;;;;;;;;;2134971;27;19970;-56
2022/02/11 01:52:48;;;;;;;;;;;;;;;;;;2133165;27;20009;-56
2022/02/11 01:53:56;;;;;;;;;;;;;;;;;;2131836;27;20482;-56
2022/02/11 01:55:16;;;;;;;;;;;;;;;;;;2132374;27;19950;-56
2022/02/11 01:56:33;;;;;;;;;;;;;;;;;;2139169;27;20051;-55
2022/02/11 01:58:06;;;;;;;;;;;;;;;;;;2141284;27;19950;-54
2022/02/11 02:00:40;;;;;;;;;;;;;;;;;;2141535;27;19930;-56
2022/02/11 02:05:22;;;;;;;;;;;;;;;;;;2091910;28;20015;-56
2022/02/11 02:08:44;;;;;;;;;;;;;;;;;;2107636;28;20365;-47
2022/02/11 02:09:58;;;;;;;;;;;;;;;;;;2141327;27;19934;-56
2022/02/11 02:12:35;;;;;;;;;;;;;;;;;;2135675;27;19973;-45
2022/02/11 02:15:22;;;;;;;;;;;;;;;;;;2134045;27;20025;-55
2022/02/11 02:17:28;;;;;;;;;;;;;;;;;;2141318;27;20067;-55
2022/02/11 02:20:13;;;;;;;;;;;;;;;;;;2132916;27;20006;-55
2022/02/11 02:23:05;;;;;;;;;;;;;;;;;;2132720;27;20383;-56
2022/02/11 02:24:17;;;;;;;;;;;;;;;;;;2138059;27;20440;-55
2022/02/11 02:25:25;;;;;;;;;;;;;;;;;;2141564;27;20407;-45
2022/02/11 02:26:38;;;;;;;;;;;;;;;;;;2140364;27;20396;-45
2022/02/11 02:27:53;;;;;;;;;;;;;;;;;;2140331;27;19922;-46
2022/02/11 02:33:30;;;;;;;;;;;;;;;;;;2097375;28;19982;-44
2022/02/11 02:36:33;;;;;;;;;;;;;;;;;;2113812;28;20396;-56
2022/02/11 02:39:21;;;;;;;;;;;;;;;;;;2096412;28;19975;-55
2022/02/11 02:56:42;;;;;;;;;;;;;;;;;;2132434;27;20048;-46
2022/02/11 02:57:47;;;;;;;;;;;;;;;;;;2136165;27;20596;-45
2022/02/11 02:58:59;;;;;;;;;;;;;;;;;;2140127;27;19971;-45
2022/02/11 03:00:27;;;;;;;;;;;;;;;;;;2141506;27;19954;-56
2022/02/11 03:01:41;;;;;;;;;;;;;;;;;;2134656;27;19930;-54
2022/02/11 03:17:50;;;;;;;;;;;;;;;;;;2114138;28;20192;-45
2022/02/11 03:34:51;;;;;;;;;;;;;;;;;;2139773;27;20007;-44
2022/02/11 03:49:29;;;;;;;;;;;;;;;;;;2108876;27;20074;-55
2022/02/11 03:51:00;;;;;;;;;;;;;;;;;;2132285;27;19969;-53
2022/02/11 03:53:57;;;;;;;;;;;;;;;;;;2131809;27;19970;-56
2022/02/11 03:58:11;;;;;;;;;;;;;;;;;;2112113;28;20439;-45
2022/02/11 04:08:15;;;;;;;;;;;;;;;;;;2114266;28;20002;-45
2022/02/11 04:21:20;;;;;;;;;;;;;;;;;;2138756;27;20369;-43
2022/02/11 04:22:51;;;;;;;;;;;;;;;;;;2132747;27;20011;-43
2022/02/11 04:55:37;;;;;;;;;;;;;;;;;;2105138;28;19994;-44
2022/02/11 04:56:42;;;;;;;;;;;;;;;;;;2107283;28;20015;-54
2022/02/11 05:00:21;;;;;;;;;;;;;;;;;;2112802;28;19952;-44
2022/02/11 05:01:22;;;;;;;;;;;;;;;;;;2108732;28;20019;-53
2022/02/11 05:02:26;;;;;;;;;;;;;;;;;;2109982;28;20293;-46
2022/02/11 05:03:26;;;;;;;;;;;;;;;;;;2112218;28;20006;-43
2022/02/11 05:04:28;;;;;;;;;;;;;;;;;;2115650;27;19923;-43
2022/02/11 05:05:29;;;;;;;;;;;;;;;;;;2138504;27;20010;-43
2022/02/11 05:06:30;;;;;;;;;;;;;;;;;;2131732;27;19954;-44
2022/02/11 05:07:31;;;;;;;;;;;;;;;;;;2131589;27;20295;-44
2022/02/11 05:08:32;;;;;;;;;;;;;;;;;;2138046;27;19926;-44
2022/02/11 05:09:33;;;;;;;;;;;;;;;;;;2140482;27;20403;-53
2022/02/11 05:10:36;;;;;;;;;;;;;;;;;;2139502;27;20013;-54
2022/02/11 05:11:37;;;;;;;;;;;;;;;;;;2138615;27;20386;-51
2022/02/11 05:12:38;;;;;;;;;;;;;;;;;;2140684;27;19945;-44
2022/02/11 05:13:39;;;;;;;;;;;;;;;;;;2139278;27;19970;-44
2022/02/11 05:14:39;;;;;;;;;;;;;;;;;;2139906;27;20375;-44
2022/02/11 05:15:40;;;;;;;;;;;;;;;;;;2140158;27;19923;-44
2022/02/11 05:16:41;;;;;;;;;;;;;;;;;;2136838;27;21325;-44
2022/02/11 05:17:43;;;;;;;;;;;;;;;;;;2139892;27;19984;-45
2022/02/11 05:18:44;;;;;;;;;;;;;;;;;;2140222;27;19929;-44
2022/02/11 05:19:45;;;;;;;;;;;;;;;;;;2138242;27;19923;-53
2022/02/11 05:20:45;;;;;;;;;;;;;;;;;;2140349;27;20005;-54
2022/02/11 05:21:48;;;;;;;;;;;;;;;;;;2139353;27;20395;-46
2022/02/11 05:22:49;;;;;;;;;;;;;;;;;;2137979;27;20017;-45
2022/02/11 05:23:50;;;;;;;;;;;;;;;;;;2140859;27;20260;-52
2022/02/11 05:24:50;;;;;;;;;;;;;;;;;;2139585;27;19969;-45
2022/02/11 05:25:52;;;;;;;;;;;;;;;;;;2139881;27;19923;-45
2022/02/11 05:26:53;;;;;;;;;;;;;;;;;;2140062;27;19927;-44
2022/02/11 05:27:54;;;;;;;;;;;;;;;;;;2138350;27;19987;-43
2022/02/11 05:28:55;;;;;;;;;;;;;;;;;;2131825;27;20002;-53
2022/02/11 05:29:56;;;;;;;;;;;;;;;;;;2131550;27;20303;-51
2022/02/11 05:30:57;;;;;;;;;;;;;;;;;;2138078;27;19922;-44
2022/02/11 05:31:58;;;;;;;;;;;;;;;;;;2141767;27;19929;-44
2022/02/11 05:32:58;;;;;;;;;;;;;;;;;;2140945;27;19928;-44
2022/02/11 05:33:59;;;;;;;;;;;;;;;;;;2139952;27;19930;-44
2022/02/11 05:35:00;;;;;;;;;;;;;;;;;;2141738;27;20401;-44
2022/02/11 05:36:02;;;;;;;;;;;;;;;;;;2139908;27;19923;-46
2022/02/11 05:37:02;;;;;;;;;;;;;;;;;;2141146;27;20021;-44
2022/02/11 05:38:04;;;;;;;;;;;;;;;;;;2141629;27;20368;-44
2022/02/11 05:39:04;;;;;;;;;;;;;;;;;;2139997;27;20014;-54
2022/02/11 05:40:05;;;;;;;;;;;;;;;;;;2141022;27;19923;-54
2022/02/11 05:41:06;;;;;;;;;;;;;;;;;;2142146;27;19969;-44
2022/02/11 05:42:07;;;;;;;;;;;;;;;;;;2139428;27;20009;-45
2022/02/11 05:43:08;;;;;;;;;;;;;;;;;;2141870;27;19969;-53
2022/02/11 05:44:09;;;;;;;;;;;;;;;;;;2141275;27;20284;-54
2022/02/11 05:45:10;;;;;;;;;;;;;;;;;;2139577;27;20029;-53
2022/02/11 05:46:11;;;;;;;;;;;;;;;;;;2141718;27;19934;-44
2022/02/11 05:47:11;;;;;;;;;;;;;;;;;;2141149;27;20013;-54
2022/02/11 05:48:13;;;;;;;;;;;;;;;;;;2141122;27;19926;-54
2022/02/11 05:49:13;;;;;;;;;;;;;;;;;;2141953;27;20006;-44
2022/02/11 05:50:14;;;;;;;;;;;;;;;;;;2140522;27;19922;-43
2022/02/11 05:51:28;;;;;;;;;;;;;;;;;;2141625;27;19927;-43
2022/02/11 05:52:28;;;;;;;;;;;;;;;;;;2141589;27;19927;-43
2022/02/11 05:53:29;;;;;;;;;;;;;;;;;;2139488;27;19929;-43
2022/02/11 05:54:30;;;;;;;;;;;;;;;;;;2141472;27;19923;-44
2022/02/11 05:55:31;;;;;;;;;;;;;;;;;;2140916;27;19929;-53
2022/02/11 05:56:32;;;;;;;;;;;;;;;;;;2140204;27;19926;-54
2022/02/11 05:57:33;;;;;;;;;;;;;;;;;;2141633;27;19923;-54
2022/02/11 05:58:34;;;;;;;;;;;;;;;;;;2140913;27;19977;-52
2022/02/11 05:59:34;;;;;;;;;;;;;;;;;;2141281;27;20292;-54
2022/02/11 06:00:35;;;;;;;;;;;;;;;;;;2141839;27;20117;-54
2022/02/11 06:01:36;;;;;;;;;;;;;;;;;;2138223;27;20368;-54
2022/02/11 06:02:37;;;;;;;;;;;;;;;;;;2141433;27;19930;-55
2022/02/11 06:03:38;;;;;;;;;;;;;;;;;;2141601;27;19929;-53
2022/02/11 06:04:39;;;;;;;;;;;;;;;;;;2138157;27;20375;-44
2022/02/11 06:05:40;;;;;;;;;;;;;;;;;;2133111;27;19983;-53
2022/02/11 06:06:41;;;;;;;;;;;;;;;;;;2133822;27;20287;-53
2022/02/11 06:07:42;;;;;;;;;;;;;;;;;;2139972;27;19962;-54
2022/02/11 06:08:43;;;;;;;;;;;;;;;;;;2141430;27;19926;-53
2022/02/11 06:09:44;;;;;;;;;;;;;;;;;;2140866;27;20244;-53
2022/02/11 06:10:44;;;;;;;;;;;;;;;;;;2135137;27;20017;-52
2022/02/11 06:11:45;;;;;;;;;;;;;;;;;;2132836;27;19923;-52
2022/02/11 06:12:46;;;;;;;;;;;;;;;;;;2135581;27;19923;-51
2022/02/11 06:13:47;;;;;;;;;;;;;;;;;;2136297;27;20013;-44
2022/02/11 06:14:48;;;;;;;;;;;;;;;;;;2132991;27;20379;-54
2022/02/11 06:15:49;;;;;;;;;;;;;;;;;;2137668;27;20222;-54
2022/02/11 06:16:50;;;;;;;;;;;;;;;;;;2141279;27;20033;-54
2022/02/11 06:17:51;;;;;;;;;;;;;;;;;;2141514;27;19922;-55
2022/02/11 06:18:51;;;;;;;;;;;;;;;;;;2139488;27;19974;-52
2022/02/11 06:19:52;;;;;;;;;;;;;;;;;;2141363;27;19927;-54
2022/02/11 06:20:53;;;;;;;;;;;;;;;;;;2140982;27;20085;-54
2022/02/11 06:21:54;;;;;;;;;;;;;;;;;;2139730;27;19923;-54
2022/02/11 06:22:55;;;;;;;;;;;;;;;;;;2141179;27;20022;-54
2022/02/11 06:23:57;;;;;;;;;;;;;;;;;;2140742;27;20013;-54
2022/02/11 06:24:59;;;;;;;;;;;;;;;;;;2141352;27;19923;-54
2022/02/11 06:26:00;;;;;;;;;;;;;;;;;;2141517;27;19930;-44
2022/02/11 06:27:00;;;;;;;;;;;;;;;;;;2140375;27;20351;-44
2022/02/11 06:28:02;;;;;;;;;;;;;;;;;;2141583;27;20363;-53
2022/02/11 06:29:02;;;;;;;;;;;;;;;;;;2141438;27;20010;-54
2022/02/11 06:30:03;;;;;;;;;;;;;;;;;;2138915;27;20394;-52
2022/02/11 06:31:04;;;;;;;;;;;;;;;;;;2141323;27;19923;-50
2022/02/11 06:32:05;;;;;;;;;;;;;;;;;;2140883;27;20382;-52
2022/02/11 06:33:06;;;;;;;;;;;;;;;;;;2139580;27;19922;-54
2022/02/11 06:34:07;;;;;;;;;;;;;;;;;;2141456;27;19922;-54
2022/02/11 06:35:11;;;;;;;;;;;;;;;;;;2140440;27;19933;-55
2022/02/11 06:36:12;;;;;;;;;;;;;;;;;;2140136;27;19968;-45
2022/02/11 06:37:12;;;;;;;;;;;;;;;;;;2141234;27;20009;-44
2022/02/11 06:38:13;;;;;;;;;;;;;;;;;;2140237;27;19922;-44
2022/02/11 06:39:14;;;;;;;;;;;;;;;;;;2139798;27;20387;-44
2022/02/11 06:40:15;;;;;;;;;;;;;;;;;;2141266;27;19926;-44
2022/02/11 06:41:16;;;;;;;;;;;;;;;;;;2137684;27;19922;-44
2022/02/11 06:42:17;;;;;;;;;;;;;;;;;;2141909;27;19926;-54
2022/02/11 06:43:18;;;;;;;;;;;;;;;;;;2140449;27;20398;-55
2022/02/11 06:44:19;;;;;;;;;;;;;;;;;;2138844;27;19935;-55
2022/02/11 06:45:19;;;;;;;;;;;;;;;;;;2141283;27;19923;-55
2022/02/11 06:46:21;;;;;;;;;;;;;;;;;;2140730;27;19931;-55
2022/02/11 06:47:22;;;;;;;;;;;;;;;;;;2138583;27;19961;-54
2022/02/11 06:48:24;;;;;;;;;;;;;;;;;;2141161;27;19930;-54
2022/02/11 06:49:25;;;;;;;;;;;;;;;;;;2140467;27;19938;-54
2022/02/11 06:50:26;;;;;;;;;;;;;;;;;;2139917;27;19923;-54
2022/02/11 06:51:27;;;;;;;;;;;;;;;;;;2140968;27;19930;-55
2022/02/11 06:52:28;;;;;;;;;;;;;;;;;;2140074;27;19927;-54
2022/02/11 06:53:29;;;;;;;;;;;;;;;;;;2140401;27;19923;-52
2022/02/11 06:54:30;;;;;;;;;;;;;;;;;;2141475;27;19930;-54
2022/02/11 06:55:31;;;;;;;;;;;;;;;;;;2139014;27;19923;-45
2022/02/11 06:56:32;;;;;;;;;;;;;;;;;;2141255;27;20414;-44
2022/02/11 06:57:33;;;;;;;;;;;;;;;;;;2140867;27;19926;-44
2022/02/11 06:58:33;;;;;;;;;;;;;;;;;;2135442;27;19923;-44
2022/02/11 06:59:34;;;;;;;;;;;;;;;;;;2132695;27;19967;-54
2022/02/11 07:00:35;;;;;;;;;;;;;;;;;;2135235;27;19930;-54
2022/02/11 07:01:36;;;;;;;;;;;;;;;;;;2133383;27;19923;-54
2022/02/11 07:02:46;;;;;;;;;;;;;;;;;;2132871;27;19923;-43
2022/02/11 07:03:46;;;;;;;;;;;;;;;;;;2137604;27;20256;-44
2022/02/11 07:04:47;;;;;;;;;;;;;;;;;;2140957;27;20290;-44
2022/02/11 07:05:51;;;;;;;;;;;;;;;;;;2141206;27;20315;-44
2022/02/11 07:06:52;;;;;;;;;;;;;;;;;;2139187;27;20013;-44
2022/02/11 07:07:53;;;;;;;;;;;;;;;;;;2141230;27;19972;-44
2022/02/11 07:08:55;;;;;;;;;;;;;;;;;;2140239;27;19930;-43
2022/02/11 07:09:56;;;;;;;;;;;;;;;;;;2134634;27;20009;-44
2022/02/11 07:10:58;;;;;;;;;;;;;;;;;;2132875;27;19923;-52
2022/02/11 07:11:58;;;;;;;;;;;;;;;;;;2134122;27;20010;-45
2022/02/11 07:12:59;;;;;;;;;;;;;;;;;;2141222;27;20363;-44
2022/02/11 07:14:00;;;;;;;;;;;;;;;;;;2141003;27;19922;-54
2022/02/11 07:15:01;;;;;;;;;;;;;;;;;;2137589;27;19923;-54
2022/02/11 07:16:02;;;;;;;;;;;;;;;;;;2140828;27;20405;-54
2022/02/11 07:17:03;;;;;;;;;;;;;;;;;;2140229;27;19934;-54
2022/02/11 07:18:04;;;;;;;;;;;;;;;;;;2139647;27;19930;-44
2022/02/11 07:19:04;;;;;;;;;;;;;;;;;;2141315;27;19930;-44
2022/02/11 07:20:06;;;;;;;;;;;;;;;;;;2138963;27;20303;-44
2022/02/11 07:21:06;;;;;;;;;;;;;;;;;;2139663;27;19958;-44
2022/02/11 07:22:07;;;;;;;;;;;;;;;;;;2141034;27;19923;-44
2022/02/11 07:23:08;;;;;;;;;;;;;;;;;;2139443;27;19938;-45
2022/02/11 07:24:09;;;;;;;;;;;;;;;;;;2140676;27;19923;-53
2022/02/11 07:25:10;;;;;;;;;;;;;;;;;;2141114;27;20414;-44
2022/02/11 07:26:11;;;;;;;;;;;;;;;;;;2137381;27;19930;-44
2022/02/11 07:27:12;;;;;;;;;;;;;;;;;;2140970;27;20415;-43
2022/02/11 07:28:13;;;;;;;;;;;;;;;;;;2140786;27;19973;-54
2022/02/11 07:29:15;;;;;;;;;;;;;;;;;;2140009;27;19923;-54
2022/02/11 07:30:18;;;;;;;;;;;;;;;;;;2141256;27;19926;-44
2022/02/11 07:31:18;;;;;;;;;;;;;;;;;;2140068;27;20283;-44
2022/02/11 07:32:19;;;;;;;;;;;;;;;;;;2139624;27;20193;-44
2022/02/11 07:33:20;;;;;;;;;;;;;;;;;;2141000;27;20312;-44
2022/02/11 07:34:21;;;;;;;;;;;;;;;;;;2139935;27;19923;-44
2022/02/11 07:35:22;;;;;;;;;;;;;;;;;;2139663;27;19954;-43
2022/02/11 07:36:23;;;;;;;;;;;;;;;;;;2140687;27;19927;-45
2022/02/11 07:37:24;;;;;;;;;;;;;;;;;;2138671;27;19923;-44
2022/02/11 07:38:26;;;;;;;;;;;;;;;;;;2140341;27;19923;-43
2022/02/11 07:39:28;;;;;;;;;;;;;;;;;;2140272;27;19929;-45
2022/02/11 07:40:29;;;;;;;;;;;;;;;;;;2137808;27;20026;-45
2022/02/11 07:41:30;;;;;;;;;;;;;;;;;;2140128;27;20009;-45
2022/02/11 07:42:33;;;;;;;;;;;;;;;;;;2140338;27;20017;-44
2022/02/11 07:43:34;;;;;;;;;;;;;;;;;;2139002;27;19923;-44
2022/02/11 07:44:44;;;;;;;;;;;;;;;;;;2140884;27;20268;-44
2022/02/11 07:45:45;;;;;;;;;;;;;;;;;;2138601;27;19923;-53
2022/02/11 07:46:48;;;;;;;;;;;;;;;;;;2140696;27;20327;-53
2022/02/11 07:47:49;;;;;;;;;;;;;;;;;;2140841;27;20405;-53
2022/02/11 07:48:50;;;;;;;;;;;;;;;;;;2138753;27;20317;-53
2022/02/11 07:49:51;;;;;;;;;;;;;;;;;;2140950;27;19923;-51
2022/02/11 07:50:53;;;;;;;;;;;;;;;;;;2140161;27;20014;-54
2022/02/11 07:51:55;;;;;;;;;;;;;;;;;;2138856;27;20010;-52
2022/02/11 07:52:56;;;;;;;;;;;;;;;;;;2141019;27;20007;-52
2022/02/11 07:53:59;;;;;;;;;;;;;;;;;;2139837;27;20414;-54
2022/02/11 07:55:00;;;;;;;;;;;;;;;;;;2138151;27;20055;-51
2022/02/11 07:56:01;;;;;;;;;;;;;;;;;;2140662;27;19926;-51
2022/02/11 07:57:02;;;;;;;;;;;;;;;;;;2139710;27;19923;-53
2022/02/11 07:58:03;;;;;;;;;;;;;;;;;;2139414;27;19927;-53
2022/02/11 07:59:04;;;;;;;;;;;;;;;;;;2140647;27;19929;-52
2022/02/11 08:00:05;;;;;;;;;;;;;;;;;;2138959;27;19958;-44
2022/02/11 08:01:05;;;;;;;;;;;;;;;;;;2138141;27;19969;-43
2022/02/11 08:02:06;;;;;;;;;;;;;;;;;;2132030;27;19923;-44
2022/02/11 08:03:07;;;;;;;;;;;;;;;;;;2137855;27;19944;-44
2022/02/11 08:04:09;;;;;;;;;;;;;;;;;;2141045;27;19962;-53
2022/02/11 08:05:10;;;;;;;;;;;;;;;;;;2140230;27;20263;-54
2022/02/11 08:06:11;;;;;;;;;;;;;;;;;;2136957;27;19935;-51
2022/02/11 08:07:12;;;;;;;;;;;;;;;;;;2140555;27;20413;-54
2022/02/11 08:08:13;;;;;;;;;;;;;;;;;;2139784;27;19974;-53
2022/02/11 08:09:14;;;;;;;;;;;;;;;;;;2139636;27;19961;-43
2022/02/11 08:10:15;;;;;;;;;;;;;;;;;;2140562;27;19941;-44
2022/02/11 08:11:16;;;;;;;;;;;;;;;;;;2138493;27;20366;-44
2022/02/11 08:12:17;;;;;;;;;;;;;;;;;;2140507;27;20243;-45
2022/02/11 08:13:18;;;;;;;;;;;;;;;;;;2140620;27;19926;-44
2022/02/11 08:14:19;;;;;;;;;;;;;;;;;;2138307;27;19958;-44
2022/02/11 08:15:20;;;;;;;;;;;;;;;;;;2140564;27;20358;-44
2022/02/11 08:16:21;;;;;;;;;;;;;;;;;;2140026;27;19950;-44
2022/02/11 08:17:22;;;;;;;;;;;;;;;;;;2138784;27;19929;-46
2022/02/11 08:18:23;;;;;;;;;;;;;;;;;;2140773;27;19963;-54
2022/02/11 08:19:44;;;;;;;;;;;;;;;;;;2138603;27;19974;-54
2022/02/11 08:20:45;;;;;;;;;;;;;;;;;;2140486;27;19922;-53
2022/02/11 08:21:45;;;;;;;;;;;;;;;;;;2140320;27;19923;-54
2022/02/11 08:22:46;;;;;;;;;;;;;;;;;;2138606;27;19987;-54
2022/02/11 08:23:47;;;;;;;;;;;;;;;;;;2140586;27;19922;-53
2022/02/11 08:24:48;;;;;;;;;;;;;;;;;;2139896;27;19923;-51
2022/02/11 08:25:49;;;;;;;;;;;;;;;;;;2139054;27;20451;-54
2022/02/11 08:26:50;;;;;;;;;;;;;;;;;;2140662;27;19923;-54
2022/02/11 08:27:54;;;;;;;;;;;;;;;;;;2137364;27;20375;-54
2022/02/11 08:29:21;;;;;;;;;;;;;;;;;;2131806;27;19923;-53
2022/02/11 08:30:21;;;;;;;;;;;;;;;;;;2132514;27;20378;-52
2022/02/11 08:31:22;;;;;;;;;;;;;;;;;;2138954;27;19931;-45
2022/02/11 08:32:24;;;;;;;;;;;;;;;;;;2140461;27;20172;-45
2022/02/11 08:33:25;;;;;;;;;;;;;;;;;;2139461;27;20010;-45
2022/02/11 08:34:26;;;;;;;;;;;;;;;;;;2138906;27;19993;-45
2022/02/11 08:35:27;;;;;;;;;;;;;;;;;;2139987;27;19923;-44
2022/02/11 08:36:28;;;;;;;;;;;;;;;;;;2138939;27;20234;-44
2022/02/11 08:37:29;;;;;;;;;;;;;;;;;;2139197;27;20407;-45
2022/02/11 08:38:30;;;;;;;;;;;;;;;;;;2140753;27;19923;-44
2022/02/11 08:39:34;;;;;;;;;;;;;;;;;;2138269;27;19923;-44
2022/02/11 08:40:35;;;;;;;;;;;;;;;;;;2140495;27;19957;-47
2022/02/11 08:41:36;;;;;;;;;;;;;;;;;;2139811;27;20290;-44
2022/02/11 08:42:37;;;;;;;;;;;;;;;;;;2138893;27;19923;-45
2022/02/11 08:43:38;;;;;;;;;;;;;;;;;;2140656;27;19934;-44
2022/02/11 08:44:39;;;;;;;;;;;;;;;;;;2139848;27;19959;-46
2022/02/11 08:45:41;;;;;;;;;;;;;;;;;;2139042;27;19923;-53
2022/02/11 08:46:41;;;;;;;;;;;;;;;;;;2140659;27;20371;-44
2022/02/11 08:47:42;;;;;;;;;;;;;;;;;;2133942;27;19926;-44
2022/02/11 08:48:43;;;;;;;;;;;;;;;;;;2140167;27;19927;-44
2022/02/11 08:49:44;;;;;;;;;;;;;;;;;;2140470;27;20418;-44
2022/02/11 08:50:45;;;;;;;;;;;;;;;;;;2138109;27;20295;-44
2022/02/11 08:52:05;;;;;;;;;;;;;;;;;;2140458;27;19967;-44
2022/02/11 08:53:06;;;;;;;;;;;;;;;;;;2139938;27;19922;-51
2022/02/11 08:54:07;;;;;;;;;;;;;;;;;;2138737;27;19988;-54
2022/02/11 08:55:08;;;;;;;;;;;;;;;;;;2140566;27;20366;-53
2022/02/11 08:56:09;;;;;;;;;;;;;;;;;;2139513;27;19951;-54
2022/02/11 08:57:10;;;;;;;;;;;;;;;;;;2138846;27;20310;-53
2022/02/11 08:58:11;;;;;;;;;;;;;;;;;;2140743;27;19976;-53
2022/02/11 08:59:12;;;;;;;;;;;;;;;;;;2138083;27;19950;-52
2022/02/11 09:00:13;;;;;;;;;;;;;;;;;;2140396;27;19933;-54
2022/02/11 09:01:14;;;;;;;;;;;;;;;;;;2136660;27;20379;-44
2022/02/11 09:02:16;;;;;;;;;;;;;;;;;;2136889;27;19950;-44
2022/02/11 09:03:19;;;;;;;;;;;;;;;;;;2140398;27;20010;-44
2022/02/11 09:04:20;;;;;;;;;;;;;;;;;;2139988;27;19954;-44
2022/02/11 09:05:22;;;;;;;;;;;;;;;;;;2138668;27;19962;-51
2022/02/11 09:06:23;;;;;;;;;;;;;;;;;;2139752;27;19931;-51
2022/02/11 09:07:24;;;;;;;;;;;;;;;;;;2139417;27;19931;-53
2022/02/11 09:08:26;;;;;;;;;;;;;;;;;;2134315;27;19923;-53
2022/02/11 09:09:27;;;;;;;;;;;;;;;;;;2131926;27;20454;-43
2022/02/11 09:10:28;;;;;;;;;;;;;;;;;;2135443;27;19923;-44
2022/02/11 09:11:29;;;;;;;;;;;;;;;;;;2140191;27;19923;-44
2022/02/11 09:12:34;;;;;;;;;;;;;;;;;;2140275;27;19974;-44
2022/02/11 09:13:36;;;;;;;;;;;;;;;;;;2137998;27;19945;-44
2022/02/11 09:14:37;;;;;;;;;;;;;;;;;;2140146;27;20013;-44
2022/02/11 09:15:41;;;;;;;;;;;;;;;;;;2139957;27;20248;-44
2022/02/11 09:16:42;;;;;;;;;;;;;;;;;;2137455;27;19923;-43
2022/02/11 09:17:43;;;;;;;;;;;;;;;;;;2140832;27;20021;-45
2022/02/11 09:18:44;;;;;;;;;;;;;;;;;;2139468;27;20265;-44
2022/02/11 09:19:47;;;;;;;;;;;;;;;;;;2137980;27;19923;-44
2022/02/11 09:20:48;;;;;;;;;;;;;;;;;;2140257;27;19961;-44
2022/02/11 09:21:49;;;;;;;;;;;;;;;;;;2138076;27;20063;-43
2022/02/11 09:22:51;;;;;;;;;;;;;;;;;;2131716;27;19930;-44
2022/02/11 09:23:51;;;;;;;;;;;;;;;;;;2131571;27;20200;-45
2022/02/11 09:24:54;;;;;;;;;;;;;;;;;;2135394;27;19926;-44
2022/02/11 09:25:55;;;;;;;;;;;;;;;;;;2140203;27;20346;-44
2022/02/11 09:26:56;;;;;;;;;;;;;;;;;;2140366;27;19930;-43
2022/02/11 09:27:57;;;;;;;;;;;;;;;;;;2137611;27;19945;-53
2022/02/11 09:28:58;;;;;;;;;;;;;;;;;;2140167;27;19930;-51
2022/02/11 09:29:59;;;;;;;;;;;;;;;;;;2140724;27;19923;-51
2022/02/11 09:30:59;;;;;;;;;;;;;;;;;;2137418;27;19972;-53
2022/02/11 09:32:00;;;;;;;;;;;;;;;;;;2140424;27;19923;-52
2022/02/11 09:33:01;;;;;;;;;;;;;;;;;;2138245;27;19930;-54
2022/02/11 09:34:04;;;;;;;;;;;;;;;;;;2138934;27;19970;-54
2022/02/11 09:35:05;;;;;;;;;;;;;;;;;;2140171;27;19930;-54
2022/02/11 09:36:06;;;;;;;;;;;;;;;;;;2137221;27;20287;-54
2022/02/11 09:37:07;;;;;;;;;;;;;;;;;;2131524;27;20013;-51
2022/02/11 09:38:08;;;;;;;;;;;;;;;;;;2131430;27;19967;-50
2022/02/11 09:39:09;;;;;;;;;;;;;;;;;;2136253;27;19935;-44
2022/02/11 09:40:09;;;;;;;;;;;;;;;;;;2140152;27;19933;-43
2022/02/11 09:41:10;;;;;;;;;;;;;;;;;;2138556;27;19923;-44
2022/02/11 09:42:11;;;;;;;;;;;;;;;;;;2135414;27;20385;-44
2022/02/11 09:43:12;;;;;;;;;;;;;;;;;;2139977;27;19930;-43
2022/02/11 09:44:13;;;;;;;;;;;;;;;;;;2140769;27;19998;-52
2022/02/11 09:45:14;;;;;;;;;;;;;;;;;;2136391;27;19948;-52
2022/02/11 09:46:15;;;;;;;;;;;;;;;;;;2139831;27;19923;-52
2022/02/11 09:47:16;;;;;;;;;;;;;;;;;;2138292;27;20014;-53
2022/02/11 09:48:16;;;;;;;;;;;;;;;;;;2138645;27;19923;-54
2022/02/11 09:49:18;;;;;;;;;;;;;;;;;;2139951;27;20464;-54
2022/02/11 09:50:20;;;;;;;;;;;;;;;;;;2136810;27;19927;-53
2022/02/11 09:51:21;;;;;;;;;;;;;;;;;;2139915;27;19922;-51
2022/02/11 09:52:22;;;;;;;;;;;;;;;;;;2140123;27;19958;-50
2022/02/11 09:53:23;;;;;;;;;;;;;;;;;;2135344;27;19923;-52
2022/02/11 09:54:24;;;;;;;;;;;;;;;;;;2139970;27;20025;-52
2022/02/11 09:55:34;;;;;;;;;;;;;;;;;;2137752;27;20017;-53
2022/02/11 09:56:35;;;;;;;;;;;;;;;;;;2132100;27;19930;-52
2022/02/11 09:57:40;;;;;;;;;;;;;;;;;;2131566;27;19923;-53
2022/02/11 09:58:40;;;;;;;;;;;;;;;;;;2134376;27;19925;-44
2022/02/11 09:59:41;;;;;;;;;;;;;;;;;;2139195;27;19926;-51
2022/02/11 10:00:44;;;;;;;;;;;;;;;;;;2139947;27;19924;-43
2022/02/11 10:01:44;;;;;;;;;;;;;;;;;;2134999;27;20395;-44
2022/02/11 10:02:44;;;;;;;;;;;;;;;;;;2131444;27;20157;-53
2022/02/11 10:03:45;;;;;;;;;;;;;;;;;;2131238;27;19923;-44
2022/02/11 10:04:46;;;;;;;;;;;;;;;;;;2135292;27;19923;-44
2022/02/11 10:05:47;;;;;;;;;;;;;;;;;;2131215;27;19959;-43
2022/02/11 10:06:50;;;;;;;;;;;;;;;;;;2134011;27;20002;-44
2022/02/11 10:07:52;;;;;;;;;;;;;;;;;;2138521;27;19973;-44
2022/02/11 10:08:53;;;;;;;;;;;;;;;;;;2139754;27;19962;-53
2022/02/11 10:09:54;;;;;;;;;;;;;;;;;;2136381;27;19931;-52
2022/02/11 10:10:58;;;;;;;;;;;;;;;;;;2131196;27;19934;-53
2022/02/11 10:11:59;;;;;;;;;;;;;;;;;;2131030;27;20017;-54